Historyczne dane pomiarowe

Dodano dane terminowe – wersja testowa.

Dane z okresu 1951-2019

Wersja bazy: 1.34 [2019-03-16, lista zmian], aktualizacja planowana na 2019-04-15

Dane meteo z obszaru Polski uzyskane na podstawie danych udostępnionych przez Instytut Meteorologii i Gospodarki Wodnej – Państwowy Instytut Badawczy.

 

Wybierz Datę:    

       

TemperaturaWilgotnośćWiatrCiśnienieOpadyŚniegCzas trwania zjawisk
 Stacja t tx tn tng RH VA  wxwx mslp ppp RRR   cm mm wxwxwxwxwxwxwx
1999-08-14 13.7 20.1 8.3- 92.5- 8.0 0.7---- 0.0------------
1999-08-13 16.5 21.2 12.5- 85.8- 7.0 2.7---- 0.5------------
1999-08-12 17.4 22.0 14.9- 85.0- 5.3 2.0---- 0.0------------
1999-08-11 19.5 23.9 16.9- 91.8- 7.0 2.3---- 0.3------------
1999-08-10 20.8 28.8 16.3- 80.3- 6.0 2.0---- 12.0------------
1999-08-09 20.8 28.3 16.5- 88.8- 7.3 1.3---- 0.0------------
1999-08-08 18.3 24.6 13.1- 93.5- 7.3 1.3---- 13.8------------
1999-08-07 22.1 28.8 13.3- 55.3- 4.0 2.0---- 0.0------------
1999-08-06 20.0 28.2 11.6- 58.0- 2.0 2.0---- 0.0------------
1999-08-05 19.9 28.2 13.8- 60.3- 3.3 1.0---- 0.0------------
1999-08-04 19.1 26.3 10.8- 57.8- 2.0 0.7---- 0.0------------
1999-08-03 18.2 25.8 10.5- 57.8- 3.3 0.7---- 0.0------------
1999-08-02 18.5 26.3 10.3- 58.0- 2.7 0.7---- 0.0------------
1999-08-01 18.3 25.8 10.5- 55.0- 1.0 0.7---- 0.0------------
1999-07-31 19.2 26.3 10.9- 50.0- 1.7 2.7---- 0.0------------
1999-07-30 18.4 25.8 10.4- 69.0- 2.7 2.0---- 0.0------------
1999-07-29 17.5 23.9 9.9- 67.3- 1.7 2.0---- 0.0------------
1999-07-28 16.6 22.9 12.8- 77.8- 4.3 0.7---- 0.0------------
1999-07-27 18.8 24.0 13.8- 71.5- 1.7 0.0---- 0.0------------
1999-07-26 20.2 27.5 12.2- 74.8- 5.3 2.0---- 15.5------------
1999-07-25 19.8 25.9 12.0- 64.3- 4.3 2.3---- 0.0------------
1999-07-24 19.1 24.9 11.8- 73.5- 2.0 2.3---- 0.0------------
1999-07-23 17.0 22.5 9.8- 68.3- 6.0 0.7---- 0.0------------
1999-07-22 19.8 24.9 15.3- 69.5- 4.0 2.3---- 0.0------------
1999-07-21 21.7 29.3 14.9- 67.0- 4.0 2.0---- 0.0------------
1999-07-20 21.2 27.0 14.3- 68.0- 2.7 1.3---- 0.0------------
1999-07-19 20.0 26.8 12.8- 72.3- 6.0 1.3---- 0.0------------
1999-07-18 18.6 24.5 10.7- 71.3- 4.0 1.0---- 0.0------------
1999-07-17 17.1 23.2 9.0- 72.5- 2.7 1.3---- 0.0------------
1999-07-16 17.0 20.0 12.8- 89.3- 5.7 2.0---- 0.0------------
1999-07-15 16.7 19.5 14.9- 95.0- 8.0 2.0---- 10.2------------
1999-07-14 21.2 27.3 17.0- 74.0- 5.7 2.0---- 8.3------------
1999-07-13 23.0 29.1 14.9- 55.3- 2.0 1.7---- 0.0------------
1999-07-12 22.2 29.1 13.4- 56.8- 2.0 2.0---- 0.0------------
1999-07-11 20.7 28.8 11.4- 55.8- 1.3 0.0---- 0.0------------
1999-07-10 19.5 26.4 10.9- 58.3- 2.7 1.3---- 0.0------------
1999-07-09 20.3 25.5 15.4- 72.5- 4.7 2.3---- 0.0------------
1999-07-08 19.8 23.0 16.5- 89.5- 7.3 1.3---- 1.1------------
1999-07-07 22.2 28.0 18.9- 81.3- 4.3 3.0---- 0.0------------
1999-07-06 25.4 31.7 19.1- 64.0- 2.3 2.3---- 0.0------------
1999-07-05 24.7 31.7 17.9- 72.5- 3.7 2.0---- 0.0------------
1999-07-04 22.3 27.8 14.3- 70.5- 4.0 2.7---- 0.0------------
1999-07-03 18.4 24.3 11.8- 73.0- 2.7 2.3---- 0.0------------
1999-07-02 20.0 24.9 16.0- 76.3- 6.7 1.3---- 0.0------------
1999-07-01 20.0 26.3 11.8- 72.0- 4.0 2.0---- 0.0------------
1999-06-30 18.6 25.0 11.1- 72.8- 2.0 2.0---- 0.0------------
1999-06-29 19.7 25.4 13.0- 77.0- 2.0 3.0---- 0.0------------
1999-06-28 21.6 28.0 12.8- 74.8- 2.0 2.0---- 0.0------------
1999-06-27 18.8 25.1 9.3- 66.8- 2.7 0.7---- 0.0------------
1999-06-26 14.2 20.4 5.9- 79.0- 5.3 2.0---- 0.0------------
1999-06-25 11.7 12.3 10.8- 97.0- 8.0 3.7---- 0.9------------
1999-06-24 12.0 13.6 10.9- 97.0- 8.0 3.7---- 5.0------------
1999-06-23 15.9 19.6 12.8- 98.8- 8.0 2.0---- 9.2------------
1999-06-22 18.5 24.4 15.4- 90.8- 8.0 2.0---- 15.0------------
1999-06-21 20.0 23.0 14.9- 83.0- 6.0 1.3---- 3.3------------
1999-06-20 20.9 26.3 14.4- 87.0- 4.7 2.0---- 2.0------------
1999-06-19 21.0 28.5 15.4- 84.3- 4.7 0.7---- 1.7------------
1999-06-18 20.4 25.4 17.4- 92.0- 8.0 1.3---- 0.8------------
1999-06-17 19.7 24.9 15.5- 93.5- 7.0 2.0---- 15.3------------
1999-06-16 19.4 22.5 16.6- 90.5- 6.7 2.3---- 0.0------------
354.4 ms

 

Źródłem pochodzenia danych jest Instytut Meteorologii i Gospodarki Wodnej – Państwowy Instytut Badawczy. Dane Instytutu Meteorologii i Gospodarki Wodnej – Państwowego Instytutu Badawczego zostały przetworzone.

Dane źródłowe można odnaleźć na stronie https://dane.imgw.pl